createdAt,value
2022-12-15T00:00:24.987Z,8.10
2022-12-15T00:03:10.071Z,8.11
2022-12-15T00:05:55.365Z,8.14
2022-12-15T00:08:40.815Z,8.16
2022-12-15T00:11:26.349Z,8.17
2022-12-15T00:14:11.220Z,8.19
2022-12-15T00:16:56.006Z,8.20
2022-12-15T00:19:41.278Z,8.20
2022-12-15T00:22:26.200Z,8.22
2022-12-15T00:25:11.330Z,8.22
2022-12-15T00:27:56.211Z,8.22
2022-12-15T00:30:41.091Z,8.23
2022-12-15T00:33:30.776Z,8.22
2022-12-15T00:36:19.170Z,8.25
2022-12-15T00:38:46.220Z,8.26
2022-12-15T00:41:17.035Z,8.26
2022-12-15T00:43:43.987Z,8.26
2022-12-15T00:46:29.303Z,8.24
2022-12-15T00:48:56.153Z,8.26
2022-12-15T00:51:22.874Z,8.27
2022-12-15T00:54:10.742Z,8.29
2022-12-15T00:56:58.297Z,8.31
2022-12-15T00:59:43.387Z,8.32
2022-12-15T01:02:28.468Z,8.32
2022-12-15T01:05:13.642Z,8.32
2022-12-15T01:07:58.446Z,8.34
2022-12-15T01:10:43.596Z,8.36
2022-12-15T01:13:31.650Z,8.37
2022-12-15T01:16:16.931Z,8.37
2022-12-15T01:19:01.869Z,8.37
2022-12-15T01:21:28.420Z,8.37
2022-12-15T01:23:54.951Z,8.36
2022-12-15T01:26:21.508Z,8.37
2022-12-15T01:28:48.018Z,8.38
2022-12-15T01:31:14.880Z,8.41
2022-12-15T01:33:43.532Z,8.47
2022-12-15T01:36:10.569Z,8.54
2022-12-15T01:38:37.195Z,8.60
2022-12-15T01:41:07.841Z,8.64
2022-12-15T01:43:36.210Z,8.65
2022-12-15T01:46:11.624Z,8.68
2022-12-15T01:48:48.983Z,8.73
2022-12-15T01:51:29.329Z,8.76
2022-12-15T01:54:03.872Z,8.74
2022-12-15T01:56:37.295Z,8.76
2022-12-15T01:59:05.415Z,8.78
2022-12-15T02:01:32.058Z,8.82
2022-12-15T02:03:58.675Z,8.89
2022-12-15T02:06:26.182Z,8.94
2022-12-15T02:08:54.308Z,8.98
2022-12-15T02:11:58.933Z,9.03
2022-12-15T02:15:10.334Z,9.10
2022-12-15T02:17:53.792Z,9.16
2022-12-15T02:20:34.052Z,9.17
2022-12-15T02:23:26.666Z,9.20
2022-12-15T02:26:50.089Z,9.21
2022-12-15T02:29:41.106Z,9.21
2022-12-15T02:32:13.790Z,9.17
2022-12-15T02:34:45.024Z,9.18
2022-12-15T02:37:15.657Z,9.21
2022-12-15T02:39:42.410Z,9.24
2022-12-15T02:42:10.542Z,9.28
2022-12-15T02:45:05.924Z,9.31
2022-12-15T02:47:46.369Z,9.34
2022-12-15T02:50:32.002Z,9.36
2022-12-15T02:53:30.046Z,9.38
2022-12-15T02:56:07.782Z,9.37
2022-12-15T02:58:53.131Z,9.40
2022-12-15T03:01:42.912Z,9.40
2022-12-15T03:04:10.860Z,9.39
2022-12-15T03:06:37.583Z,9.39
2022-12-15T03:09:04.264Z,9.38
2022-12-15T03:11:30.961Z,9.31
2022-12-15T03:13:57.753Z,9.19
2022-12-15T03:16:24.531Z,9.07
2022-12-15T03:18:52.022Z,8.94
2022-12-15T03:21:18.553Z,8.86
2022-12-15T03:23:45.113Z,8.77
2022-12-15T03:26:11.910Z,8.71
2022-12-15T03:28:38.464Z,8.65
2022-12-15T03:31:05.243Z,8.64
2022-12-15T03:33:34.052Z,8.62
2022-12-15T03:36:01.040Z,8.62
2022-12-15T03:38:27.631Z,8.62
2022-12-15T03:40:54.127Z,8.62
2022-12-15T03:43:20.580Z,8.60
2022-12-15T03:45:47.234Z,8.60
2022-12-15T03:48:13.832Z,8.57
2022-12-15T03:50:40.856Z,8.59
2022-12-15T03:53:07.687Z,8.58
2022-12-15T03:55:35.318Z,8.58
2022-12-15T03:58:02.749Z,8.61
2022-12-15T04:00:29.477Z,8.63
2022-12-15T04:02:56.374Z,8.65
2022-12-15T04:05:22.891Z,8.68
2022-12-15T04:07:49.454Z,8.70
2022-12-15T04:10:16.134Z,8.73
2022-12-15T04:12:42.653Z,8.77
2022-12-15T04:15:10.374Z,8.79
2022-12-15T04:17:37.837Z,8.81
2022-12-15T04:20:11.629Z,8.82
2022-12-15T04:22:46.474Z,8.83
2022-12-15T04:25:34.550Z,8.86
2022-12-15T04:28:19.797Z,8.87
2022-12-15T04:31:20.104Z,8.86
2022-12-15T04:34:08.806Z,8.84
2022-12-15T04:36:54.538Z,8.84
2022-12-15T04:39:39.726Z,8.83
2022-12-15T04:42:24.923Z,8.77
2022-12-15T04:45:13.197Z,8.54
2022-12-15T04:48:02.254Z,8.30
2022-12-15T04:50:47.081Z,8.23
2022-12-15T04:53:36.963Z,8.21
2022-12-15T04:56:22.785Z,8.25
2022-12-15T04:59:08.269Z,8.25
2022-12-15T05:01:53.219Z,8.24
2022-12-15T05:04:38.421Z,8.25
2022-12-15T05:07:23.503Z,8.28
2022-12-15T05:10:14.700Z,8.31
2022-12-15T05:13:00.264Z,8.30
2022-12-15T05:15:45.508Z,8.30
2022-12-15T05:18:30.836Z,8.32
2022-12-15T05:21:18.674Z,8.43
2022-12-15T05:24:03.484Z,8.38
2022-12-15T05:26:52.572Z,8.30
2022-12-15T05:29:38.459Z,8.27
2022-12-15T05:32:05.219Z,8.24
2022-12-15T05:34:33.223Z,8.21
2022-12-15T05:37:01.319Z,8.19
2022-12-15T05:39:28.434Z,8.20
2022-12-15T05:41:56.042Z,8.21
2022-12-15T05:44:23.735Z,8.28
2022-12-15T05:46:50.323Z,8.34
2022-12-15T05:49:17.930Z,8.39
2022-12-15T05:51:46.207Z,8.41
2022-12-15T05:54:15.745Z,8.42
2022-12-15T05:56:42.356Z,8.43
2022-12-15T05:59:08.975Z,8.46
2022-12-15T06:01:35.692Z,8.45
2022-12-15T06:04:02.358Z,8.47
2022-12-15T06:06:28.978Z,8.48
2022-12-15T06:08:55.564Z,8.57
2022-12-15T06:11:22.466Z,8.68
2022-12-15T06:13:49.287Z,8.79
2022-12-15T06:16:16.925Z,8.87
2022-12-15T06:18:50.492Z,8.92
2022-12-15T06:21:19.575Z,8.96
2022-12-15T06:23:47.968Z,9.00
2022-12-15T06:26:22.961Z,9.04
2022-12-15T06:28:50.354Z,9.06
2022-12-15T06:31:19.698Z,9.08
2022-12-15T06:33:46.320Z,9.11
2022-12-15T06:36:14.452Z,9.11
2022-12-15T06:38:44.832Z,9.14
2022-12-15T06:41:17.904Z,9.18
2022-12-15T06:43:53.309Z,9.17
2022-12-15T06:46:20.346Z,9.18
2022-12-15T06:48:47.459Z,9.19
2022-12-15T06:51:17.189Z,9.20
2022-12-15T06:53:53.891Z,9.18
2022-12-15T06:56:32.534Z,9.19
2022-12-15T06:59:00.211Z,9.18
2022-12-15T07:01:27.531Z,9.20
2022-12-15T07:03:54.805Z,9.20
2022-12-15T07:06:21.699Z,9.20
2022-12-15T07:08:52.468Z,9.22
2022-12-15T07:11:20.758Z,9.24
2022-12-15T07:13:51.607Z,9.27
2022-12-15T07:16:18.737Z,9.29
2022-12-15T07:18:45.375Z,9.28
2022-12-15T07:21:11.849Z,9.29
2022-12-15T07:23:55.693Z,9.31
2022-12-15T07:26:23.947Z,9.22
2022-12-15T07:28:50.636Z,8.99
2022-12-15T07:31:17.982Z,8.79
2022-12-15T07:33:44.797Z,8.59
2022-12-15T07:36:11.467Z,8.49
2022-12-15T07:38:38.277Z,8.46
2022-12-15T07:41:06.854Z,8.43
2022-12-15T07:43:34.238Z,8.39
2022-12-15T07:46:01.368Z,8.39
2022-12-15T07:48:27.936Z,8.41
2022-12-15T07:51:04.941Z,8.42
2022-12-15T07:53:36.686Z,8.41
2022-12-15T07:56:08.508Z,8.38
2022-12-15T07:58:35.531Z,8.32
2022-12-15T08:01:05.090Z,8.30
2022-12-15T08:03:32.697Z,8.32
2022-12-15T08:06:04.553Z,8.33
2022-12-15T08:08:32.214Z,8.37
2022-12-15T08:10:59.087Z,8.42
2022-12-15T08:14:00.880Z,8.42
2022-12-15T08:16:12.846Z,8.39
2022-12-15T08:18:39.626Z,8.36
2022-12-15T08:21:08.302Z,8.26
2022-12-15T08:23:35.393Z,8.19
2022-12-15T08:26:07.704Z,8.33
2022-12-15T08:28:34.904Z,8.58
2022-12-15T08:31:06.085Z,8.78
2022-12-15T08:33:33.157Z,8.90
2022-12-15T08:36:03.093Z,9.02
2022-12-15T08:38:30.487Z,9.16
2022-12-15T08:40:57.400Z,9.25
2022-12-15T08:43:23.990Z,9.32
2022-12-15T08:45:50.544Z,9.37
2022-12-15T08:48:17.166Z,9.41
2022-12-15T08:50:46.774Z,9.43
2022-12-15T08:53:41.517Z,9.43
2022-12-15T08:56:12.260Z,9.45
2022-12-15T08:58:40.161Z,9.49
2022-12-15T09:01:09.704Z,9.55
2022-12-15T09:03:36.907Z,9.60
2022-12-15T09:06:05.300Z,9.62
2022-12-15T09:08:32.042Z,9.66
2022-12-15T09:10:59.146Z,9.74
2022-12-15T09:13:25.813Z,9.80
2022-12-15T09:16:09.526Z,9.83
2022-12-15T09:18:36.667Z,9.85
2022-12-15T09:21:07.765Z,9.90
2022-12-15T09:23:36.007Z,9.93
2022-12-15T09:26:11.129Z,9.94
2022-12-15T09:28:38.258Z,9.93
2022-12-15T09:31:09.876Z,9.91
2022-12-15T09:33:36.719Z,9.87
2022-12-15T09:36:04.186Z,9.81
2022-12-15T09:38:31.461Z,9.72
2022-12-15T09:40:58.142Z,9.62
2022-12-15T09:43:35.747Z,9.53
2022-12-15T09:46:34.884Z,9.42
2022-12-15T09:49:07.041Z,9.28
2022-12-15T09:51:34.731Z,9.10
2022-12-15T09:54:01.680Z,8.94
2022-12-15T09:56:56.986Z,8.82
2022-12-15T09:59:29.005Z,8.73
2022-12-15T10:02:13.856Z,8.65
2022-12-15T10:04:47.463Z,8.57
2022-12-15T10:07:37.538Z,8.54
2022-12-15T10:10:25.692Z,8.53
2022-12-15T10:13:01.791Z,8.48
2022-12-15T10:15:33.169Z,8.40
2022-12-15T10:18:04.272Z,8.34
2022-12-15T10:20:31.918Z,8.25
2022-12-15T10:23:02.873Z,8.16
2022-12-15T10:25:31.229Z,8.11
2022-12-15T10:28:15.881Z,8.12
2022-12-15T10:30:59.412Z,8.06
2022-12-15T10:33:28.463Z,8.07
2022-12-15T10:35:55.517Z,8.05
2022-12-15T10:38:40.433Z,8.03
2022-12-15T10:41:12.262Z,8.03
2022-12-15T10:43:41.946Z,8.02
2022-12-15T10:46:19.185Z,8.03
2022-12-15T10:48:54.526Z,7.98
2022-12-15T10:51:31.502Z,7.92
2022-12-15T10:54:10.288Z,7.81
2022-12-15T10:56:57.704Z,7.71
2022-12-15T10:59:38.473Z,7.62
2022-12-15T11:02:34.556Z,7.46
2022-12-15T11:05:16.584Z,7.30
2022-12-15T11:07:46.074Z,7.18
2022-12-15T11:10:16.870Z,7.06
2022-12-15T11:12:58.258Z,6.97
2022-12-15T11:15:25.253Z,6.95
2022-12-15T11:18:03.957Z,6.92
2022-12-15T11:20:35.172Z,6.94
2022-12-15T11:23:16.554Z,6.95
2022-12-15T11:25:46.046Z,6.94
2022-12-15T11:28:18.848Z,6.95
2022-12-15T11:30:57.435Z,6.96
2022-12-15T11:33:23.989Z,7.00
2022-12-15T11:36:07.734Z,6.99
2022-12-15T11:39:08.921Z,7.00
2022-12-15T11:41:53.279Z,6.98
2022-12-15T11:44:20.639Z,6.96
2022-12-15T11:47:13.331Z,6.95
2022-12-15T11:50:07.270Z,6.95
2022-12-15T11:52:53.070Z,6.99
2022-12-15T11:55:41.013Z,6.95
2022-12-15T11:58:32.875Z,6.93
2022-12-15T12:01:07.137Z,6.94
2022-12-15T12:03:40.007Z,6.98
2022-12-15T12:06:22.512Z,7.06
2022-12-15T12:09:04.294Z,7.14
2022-12-15T12:11:50.770Z,7.18
2022-12-15T12:14:51.307Z,7.25
2022-12-15T12:17:47.704Z,7.28
2022-12-15T12:20:19.255Z,7.34
2022-12-15T12:23:02.744Z,7.41
2022-12-15T12:25:34.744Z,7.53
2022-12-15T12:28:02.229Z,7.60
2022-12-15T12:30:40.320Z,7.65
2022-12-15T12:33:41.208Z,7.62
2022-12-15T12:36:14.368Z,7.60
2022-12-15T12:41:33.970Z,7.53
2022-12-15T12:44:07.590Z,7.55
2022-12-15T12:46:39.302Z,7.59
2022-12-15T12:49:26.673Z,7.57
2022-12-15T12:51:54.817Z,7.53
2022-12-15T12:54:36.858Z,7.50
2022-12-15T12:57:12.513Z,7.42
2022-12-15T12:59:41.313Z,7.39
2022-12-15T13:02:25.897Z,7.36
2022-12-15T13:05:06.491Z,7.34
2022-12-15T13:07:38.772Z,7.34
2022-12-15T13:10:07.887Z,7.30
2022-12-15T13:12:52.622Z,7.27
2022-12-15T13:15:31.723Z,7.25
2022-12-15T13:18:11.619Z,7.28
2022-12-15T13:20:39.518Z,7.32
2022-12-15T13:23:21.442Z,7.35
2022-12-15T13:25:57.117Z,7.34
2022-12-15T13:28:42.892Z,7.33
2022-12-15T13:31:22.014Z,7.32
2022-12-15T13:33:52.297Z,7.32
2022-12-15T13:36:40.077Z,7.35
2022-12-15T13:39:12.787Z,7.37
2022-12-15T13:42:15.340Z,7.37
2022-12-15T13:44:39.917Z,7.37
2022-12-15T13:47:16.806Z,7.39
2022-12-15T13:53:08.713Z,7.40
2022-12-15T13:55:28.278Z,7.37
2022-12-15T13:57:58.741Z,7.37
2022-12-15T14:00:25.310Z,7.37
2022-12-15T14:02:54.815Z,7.37
2022-12-15T14:05:22.635Z,7.36
2022-12-15T14:08:00.514Z,7.35
2022-12-15T14:10:32.915Z,7.37
2022-12-15T14:13:15.870Z,7.36
2022-12-15T14:15:46.231Z,7.35
2022-12-15T14:18:26.956Z,7.34
2022-12-15T14:20:53.807Z,7.33
2022-12-15T14:23:25.779Z,7.33
2022-12-15T14:25:54.390Z,7.34
2022-12-15T14:28:25.847Z,7.31
2022-12-15T14:30:52.439Z,7.29
2022-12-15T14:33:19.293Z,7.29
2022-12-15T14:35:50.898Z,7.31
2022-12-15T14:38:22.323Z,7.34
2022-12-15T14:40:50.229Z,7.36
2022-12-15T14:43:30.696Z,7.38
2022-12-15T14:46:07.560Z,7.37
2022-12-15T14:51:25.687Z,7.46
2022-12-15T14:53:53.436Z,7.47
2022-12-15T14:56:25.719Z,7.46
2022-12-15T14:59:03.760Z,7.48
2022-12-15T15:01:34.514Z,7.52
2022-12-15T15:03:05.642Z,7.41
2022-12-15T15:03:15.480Z,7.59
2022-12-15T15:04:04.901Z,7.56
2022-12-15T15:06:36.671Z,7.60
2022-12-15T15:09:14.477Z,7.62
2022-12-15T15:11:41.991Z,7.63
2022-12-15T15:14:13.054Z,7.67
2022-12-15T15:16:39.932Z,7.69
2022-12-15T15:19:06.920Z,7.70
2022-12-15T15:21:37.207Z,7.71
2022-12-15T15:24:05.186Z,7.75
2022-12-15T15:26:31.913Z,7.78
2022-12-15T15:28:58.650Z,7.84
2022-12-15T15:31:25.289Z,7.87
2022-12-15T15:33:52.791Z,7.87
2022-12-15T15:36:19.355Z,7.85
2022-12-15T15:38:46.792Z,7.83
2022-12-15T15:41:30.669Z,7.79
2022-12-15T15:43:59.338Z,7.76
2022-12-15T15:46:29.290Z,7.71
2022-12-15T15:48:58.656Z,7.67
2022-12-15T15:51:26.653Z,7.67
2022-12-15T15:53:53.881Z,7.70
2022-12-15T15:56:21.207Z,7.70
2022-12-15T15:58:47.800Z,7.71
2022-12-15T16:01:14.397Z,7.70
2022-12-15T16:03:41.478Z,7.67
2022-12-15T16:06:18.999Z,7.68
2022-12-15T16:08:47.571Z,7.70
2022-12-15T16:11:14.131Z,7.72
2022-12-15T16:13:40.726Z,7.73
2022-12-15T16:16:16.915Z,7.73
2022-12-15T16:18:43.506Z,7.79
2022-12-15T16:21:14.013Z,7.82
2022-12-15T16:23:41.889Z,7.85
2022-12-15T16:26:13.320Z,7.88
2022-12-15T16:28:40.691Z,7.93
2022-12-15T16:31:14.047Z,8.00
2022-12-15T16:33:40.554Z,8.11
2022-12-15T16:36:16.134Z,8.11
2022-12-15T16:38:42.713Z,8.10
2022-12-15T16:41:13.211Z,8.08
2022-12-15T16:43:44.459Z,8.01
2022-12-15T16:46:15.439Z,7.89
2022-12-15T16:48:42.700Z,7.77
2022-12-15T16:51:23.105Z,7.64
2022-12-15T16:53:49.634Z,7.52
2022-12-15T16:56:16.171Z,7.41
2022-12-15T16:58:48.451Z,7.32
2022-12-15T17:01:15.892Z,7.26
2022-12-15T17:03:43.143Z,7.20
2022-12-15T17:06:13.890Z,7.18
2022-12-15T17:08:43.930Z,7.15
2022-12-15T17:11:23.955Z,7.08
2022-12-15T17:13:51.770Z,7.03
2022-12-15T17:16:20.497Z,7.00
2022-12-15T17:18:47.451Z,6.94
2022-12-15T17:21:18.990Z,6.84
2022-12-15T17:23:49.249Z,6.76
2022-12-15T17:26:29.216Z,6.65
2022-12-15T17:28:58.996Z,6.60
2022-12-15T17:31:31.517Z,6.65
2022-12-15T17:34:02.665Z,6.74
2022-12-15T17:36:29.286Z,6.78
2022-12-15T17:39:00.735Z,6.73
2022-12-15T17:41:59.344Z,6.74
2022-12-15T17:44:40.768Z,6.71
2022-12-15T17:47:08.732Z,6.68
2022-12-15T17:49:37.603Z,6.64
2022-12-15T17:52:23.279Z,6.59
2022-12-15T17:54:51.209Z,6.51
2022-12-15T17:57:17.698Z,6.46
2022-12-15T17:59:44.667Z,6.47
2022-12-15T18:02:13.721Z,6.50
2022-12-15T18:04:41.316Z,6.55
2022-12-15T18:07:14.452Z,6.56
2022-12-15T18:09:41.601Z,6.58
2022-12-15T18:12:22.520Z,6.59
2022-12-15T18:14:49.235Z,6.66
2022-12-15T18:17:15.861Z,6.75
2022-12-15T18:19:42.363Z,6.81
2022-12-15T18:22:14.883Z,6.89
2022-12-15T18:24:41.447Z,6.95
2022-12-15T18:27:20.541Z,7.03
2022-12-15T18:29:47.193Z,7.09
2022-12-15T18:32:13.697Z,7.11
2022-12-15T18:34:40.259Z,7.18
2022-12-15T18:37:20.814Z,7.23
2022-12-15T18:39:47.717Z,7.24
2022-12-15T18:42:15.837Z,7.25
2022-12-15T18:44:48.569Z,7.27
2022-12-15T18:47:17.166Z,7.30
2022-12-15T18:49:43.761Z,7.33
2022-12-15T18:52:22.639Z,7.37
2022-12-15T18:54:50.593Z,7.39
2022-12-15T18:57:30.155Z,7.40
2022-12-15T19:00:14.960Z,7.40
2022-12-15T19:02:42.484Z,7.38
2022-12-15T19:05:27.223Z,7.37
2022-12-15T19:07:56.152Z,7.44
2022-12-15T19:10:22.670Z,7.49
2022-12-15T19:12:50.899Z,7.54
2022-12-15T19:15:20.737Z,7.58
2022-12-15T19:18:05.775Z,7.63
2022-12-15T19:20:50.958Z,7.70
2022-12-15T19:23:17.738Z,7.77
2022-12-15T19:25:45.700Z,7.83
2022-12-15T19:28:22.297Z,7.90
2022-12-15T19:30:49.287Z,7.92
2022-12-15T19:33:16.932Z,7.93
2022-12-15T19:35:46.212Z,8.00
2022-12-15T19:38:24.680Z,8.03
2022-12-15T19:40:55.126Z,8.03
2022-12-15T19:43:23.601Z,8.03
2022-12-15T19:45:51.812Z,8.05
2022-12-15T19:48:23.421Z,8.04
2022-12-15T19:50:52.030Z,8.06
2022-12-15T19:53:27.511Z,8.06
2022-12-15T19:55:55.941Z,8.00
2022-12-15T19:58:30.394Z,7.97
2022-12-15T20:01:00.319Z,7.96
2022-12-15T20:03:28.447Z,7.96
2022-12-15T20:05:56.544Z,7.91
2022-12-15T20:08:45.574Z,7.86
2022-12-15T20:11:23.401Z,7.83
2022-12-15T20:13:50.744Z,7.77
2022-12-15T20:16:19.196Z,7.73
2022-12-15T20:18:46.831Z,7.72
2022-12-15T20:21:17.899Z,7.72
2022-12-15T20:24:00.404Z,7.75
2022-12-15T20:26:29.222Z,7.80
2022-12-15T20:28:56.302Z,7.84
2022-12-15T20:31:23.952Z,7.89
2022-12-15T20:33:50.662Z,7.90
2022-12-15T20:36:18.314Z,7.91
2022-12-15T20:38:45.766Z,7.91
2022-12-15T20:41:25.455Z,7.91
2022-12-15T20:43:53.898Z,7.92
2022-12-15T20:46:23.485Z,7.91
2022-12-15T20:48:51.428Z,7.89
2022-12-15T20:51:24.024Z,7.90
2022-12-15T20:53:51.929Z,7.93
2022-12-15T20:56:23.238Z,7.97
2022-12-15T20:58:54.458Z,8.01
2022-12-15T21:01:27.229Z,8.07
2022-12-15T21:03:56.402Z,8.12
2022-12-15T21:06:25.016Z,8.16
2022-12-15T21:08:52.430Z,8.20
2022-12-15T21:11:24.539Z,8.18
2022-12-15T21:13:53.725Z,8.13
2022-12-15T21:16:26.844Z,8.09
2022-12-15T21:21:44.907Z,8.11
2022-12-15T21:24:22.903Z,8.14
2022-12-15T21:26:50.167Z,8.18
2022-12-15T21:29:22.351Z,8.19
2022-12-15T21:31:49.446Z,8.20
2022-12-15T21:34:16.258Z,8.20
2022-12-15T21:36:45.036Z,8.20
2022-12-15T21:39:33.564Z,8.18
2022-12-15T21:42:04.197Z,8.20
2022-12-15T21:44:30.727Z,8.22
2022-12-15T21:46:57.833Z,8.22
2022-12-15T21:49:25.525Z,8.21
2022-12-15T21:51:55.214Z,8.18
2022-12-15T21:54:33.049Z,8.20
2022-12-15T21:57:00.384Z,8.24
2022-12-15T21:59:29.503Z,8.24
2022-12-15T22:01:56.486Z,8.24
2022-12-15T22:04:25.659Z,8.24
2022-12-15T22:06:52.350Z,8.25
2022-12-15T22:09:21.229Z,8.25
2022-12-15T22:11:50.262Z,8.20
2022-12-15T22:14:24.001Z,8.13
2022-12-15T22:16:50.575Z,8.07
2022-12-15T22:19:17.080Z,8.02
2022-12-15T22:21:43.556Z,8.00
2022-12-15T22:24:10.640Z,8.01
2022-12-15T22:26:37.946Z,8.02
2022-12-15T22:29:17.635Z,8.02
2022-12-15T22:31:44.552Z,8.04
2022-12-15T22:34:16.353Z,8.05
2022-12-15T22:36:43.117Z,8.05
2022-12-15T22:39:14.800Z,8.05
2022-12-15T22:41:46.834Z,8.05
2022-12-15T22:44:26.073Z,8.03
2022-12-15T22:46:54.788Z,8.05
2022-12-15T22:49:24.534Z,8.05
2022-12-15T22:51:51.146Z,8.05
2022-12-15T22:54:23.151Z,8.06
2022-12-15T22:56:50.943Z,8.06
2022-12-15T22:59:28.579Z,8.07
2022-12-15T23:01:55.309Z,8.07
2022-12-15T23:04:22.069Z,8.08
2022-12-15T23:06:48.653Z,8.11
2022-12-15T23:09:15.158Z,8.10
2022-12-15T23:11:41.947Z,8.11
2022-12-15T23:14:11.518Z,8.09
2022-12-15T23:16:38.234Z,8.09
2022-12-15T23:19:05.342Z,8.10
2022-12-15T23:21:32.416Z,8.09
2022-12-15T23:23:59.159Z,8.06
2022-12-15T23:26:26.386Z,8.01
2022-12-15T23:28:53.822Z,7.96
2022-12-15T23:31:21.902Z,7.91
2022-12-15T23:33:48.534Z,7.90
2022-12-15T23:36:15.094Z,7.88
2022-12-15T23:38:41.686Z,7.86
2022-12-15T23:41:08.217Z,7.86
2022-12-15T23:43:35.372Z,7.87
2022-12-15T23:46:06.521Z,7.88
2022-12-15T23:48:35.561Z,7.88
2022-12-15T23:51:10.834Z,7.90
2022-12-15T23:53:38.249Z,7.90
2022-12-15T23:56:24.138Z,7.91
2022-12-15T23:58:58.841Z,7.92
